createdAt,value
2016-04-21T00:00:17.864Z,5.04
2016-04-21T00:01:03.883Z,4.97
2016-04-21T00:02:03.714Z,4.94
2016-04-21T00:03:03.467Z,4.92
2016-04-21T00:04:03.469Z,4.91
2016-04-21T00:05:03.472Z,4.99
2016-04-21T00:06:03.490Z,4.84
2016-04-21T00:07:02.711Z,4.84
2016-04-21T00:08:03.464Z,4.85
2016-04-21T00:09:03.358Z,4.84
2016-04-21T00:10:03.455Z,4.89
2016-04-21T00:11:03.535Z,4.85
2016-04-21T00:12:03.460Z,4.84
2016-04-21T00:13:03.478Z,4.85
2016-04-21T00:14:03.652Z,4.84
2016-04-21T00:15:03.436Z,4.89
2016-04-21T00:16:03.454Z,4.77
2016-04-21T00:17:03.441Z,4.78
2016-04-21T00:18:03.429Z,4.72
2016-04-21T00:19:03.432Z,4.7
2016-04-21T00:20:03.372Z,4.75
2016-04-21T00:21:03.452Z,4.75
2016-04-21T00:22:03.440Z,4.73
2016-04-21T00:23:03.442Z,4.67
2016-04-21T00:24:03.679Z,4.72
2016-04-21T00:25:03.431Z,4.69
2016-04-21T00:26:03.434Z,4.67
2016-04-21T00:27:02.953Z,4.66
2016-04-21T00:28:03.487Z,4.67
2016-04-21T00:29:03.443Z,4.65
2016-04-21T00:30:04.008Z,4.63
2016-04-21T00:31:03.604Z,4.6
2016-04-21T00:32:03.435Z,4.63
2016-04-21T00:33:03.406Z,4.58
2016-04-21T00:34:03.878Z,4.47
2016-04-21T00:35:03.396Z,4.5
2016-04-21T00:36:03.650Z,4.47
2016-04-21T00:37:17.495Z,4.48
2016-04-21T00:38:03.263Z,4.45
2016-04-21T00:39:03.392Z,4.5
2016-04-21T00:40:03.613Z,4.48
2016-04-21T00:41:03.396Z,4.52
2016-04-21T00:42:03.383Z,4.42
2016-04-21T00:43:03.386Z,4.36
2016-04-21T00:44:02.905Z,4.36
2016-04-21T00:45:03.580Z,4.37
2016-04-21T00:46:17.473Z,4.41
2016-04-21T00:47:03.444Z,4.4
2016-04-21T00:48:03.399Z,4.37
2016-04-21T00:49:03.387Z,4.4
2016-04-21T00:50:03.374Z,4.33
2016-04-21T00:51:03.361Z,4.34
2016-04-21T00:52:03.349Z,4.33
2016-04-21T00:53:03.507Z,4.3
2016-04-21T00:54:03.354Z,4.29
2016-04-21T00:55:03.388Z,4.26
2016-04-21T00:56:17.468Z,4.18
2016-04-21T00:57:03.596Z,4.2
2016-04-21T00:58:03.348Z,4.24
2016-04-21T00:59:03.367Z,4.18
2016-04-21T01:00:03.354Z,4.15
2016-04-21T01:01:03.342Z,4.15
2016-04-21T01:02:03.391Z,4.15
2016-04-21T01:03:03.331Z,4.12
2016-04-21T01:04:03.412Z,4.14
2016-04-21T01:05:03.663Z,4.08
2016-04-21T01:06:03.462Z,4.04
2016-04-21T01:07:03.462Z,4
2016-04-21T01:08:17.635Z,4.02
2016-04-21T01:09:03.767Z,4.04
2016-04-21T01:10:03.552Z,4
2016-04-21T01:11:03.602Z,4.04
2016-04-21T01:12:03.606Z,4.04
2016-04-21T01:13:03.812Z,3.96
2016-04-21T01:14:03.624Z,3.96
2016-04-21T01:15:04.211Z,3.98
2016-04-21T01:16:17.719Z,3.96
2016-04-21T01:17:03.650Z,3.96
2016-04-21T01:18:03.674Z,4.02
2016-04-21T01:19:03.619Z,3.9
2016-04-21T01:20:03.624Z,3.94
2016-04-21T01:21:03.644Z,3.94
2016-04-21T01:22:03.513Z,3.93
2016-04-21T01:23:03.658Z,3.8
2016-04-21T01:24:03.663Z,3.86
2016-04-21T01:25:03.636Z,3.79
2016-04-21T01:26:03.639Z,3.86
2016-04-21T01:27:03.674Z,3.76
2016-04-21T01:28:03.630Z,3.7
2016-04-21T01:29:03.867Z,3.78
2016-04-21T01:30:17.745Z,3.7
2016-04-21T01:31:03.623Z,3.75
2016-04-21T01:32:03.626Z,3.73
2016-04-21T01:33:03.629Z,3.8
2016-04-21T01:34:03.617Z,3.72
2016-04-21T01:35:02.885Z,3.75
2016-04-21T01:36:03.638Z,3.69
2016-04-21T01:37:03.609Z,3.7
2016-04-21T01:38:03.629Z,3.72
2016-04-21T01:39:03.146Z,3.68
2016-04-21T01:40:17.681Z,3.7
2016-04-21T01:41:03.589Z,3.69
2016-04-21T01:42:03.592Z,3.68
2016-04-21T01:43:03.609Z,3.6
2016-04-21T01:44:03.847Z,3.61
2016-04-21T01:45:03.584Z,3.62
2016-04-21T01:46:03.572Z,3.57
2016-04-21T01:47:03.793Z,3.61
2016-04-21T01:48:03.561Z,3.61
2016-04-21T01:49:03.580Z,3.61
2016-04-21T01:50:03.613Z,3.7
2016-04-21T01:51:03.569Z,3.66
2016-04-21T01:52:03.588Z,3.66
2016-04-21T01:53:03.794Z,3.62
2016-04-21T01:54:03.562Z,3.68
2016-04-21T01:55:03.564Z,3.58
2016-04-21T01:56:03.567Z,3.72
2016-04-21T01:57:03.757Z,3.54
2016-04-21T01:58:04.010Z,3.62
2016-04-21T01:59:03.809Z,3.58
2016-04-21T02:00:03.530Z,3.65
2016-04-21T02:01:17.627Z,3.65
2016-04-21T02:02:03.521Z,3.58
2016-04-21T02:03:03.758Z,3.6
2016-04-21T02:04:03.557Z,3.61
2016-04-21T02:05:03.560Z,3.58
2016-04-21T02:06:03.562Z,3.57
2016-04-21T02:07:03.566Z,3.52
2016-04-21T02:08:03.568Z,3.55
2016-04-21T02:09:03.805Z,3.52
2016-04-21T02:10:03.573Z,3.48
2016-04-21T02:11:03.779Z,3.45
2016-04-21T02:12:03.719Z,3.45
2016-04-21T02:13:03.504Z,3.4
2016-04-21T02:14:03.491Z,3.43
2016-04-21T02:15:03.696Z,3.36
2016-04-21T02:16:03.542Z,3.33
2016-04-21T02:17:03.530Z,3.43
2016-04-21T02:18:02.998Z,3.35
2016-04-21T02:19:03.688Z,3.4
2016-04-21T02:20:03.472Z,3.29
2016-04-21T02:21:03.726Z,3.42
2016-04-21T02:22:03.666Z,3.39
2016-04-21T02:23:03.714Z,3.33
2016-04-21T02:24:03.686Z,3.32
2016-04-21T02:25:03.456Z,3.4
2016-04-21T02:26:03.661Z,3.29
2016-04-21T02:27:03.461Z,3.29
2016-04-21T02:28:03.932Z,3.23
2016-04-21T02:29:03.466Z,3.29
2016-04-21T02:30:03.672Z,3.21
2016-04-21T02:31:03.440Z,3.24
2016-04-21T02:32:03.646Z,3.18
2016-04-21T02:33:17.776Z,3.18
2016-04-21T02:34:03.260Z,3.31
2016-04-21T02:35:02.935Z,3.21
2016-04-21T02:36:03.624Z,3.17
2016-04-21T02:37:03.441Z,3.21
2016-04-21T02:38:03.412Z,3.28
2016-04-21T02:39:03.415Z,3.24
2016-04-21T02:40:17.513Z,3.18
2016-04-21T02:41:03.638Z,3.26
2016-04-21T02:42:03.454Z,3.23
2016-04-21T02:43:03.393Z,3.26
2016-04-21T02:44:03.412Z,3.21
2016-04-21T02:45:03.399Z,3.13
2016-04-21T02:46:03.386Z,3.17
2016-04-21T02:47:03.624Z,3.18
2016-04-21T02:48:03.392Z,3.14
2016-04-21T02:49:03.379Z,3.18
2016-04-21T02:50:03.366Z,3.15
2016-04-21T02:51:02.900Z,3.18
2016-04-21T02:52:03.403Z,3.17
2016-04-21T02:53:03.561Z,3.14
2016-04-21T02:54:03.392Z,3.1
2016-04-21T02:55:03.364Z,3.11
2016-04-21T02:56:03.553Z,3.02
2016-04-21T02:57:03.338Z,3.05
2016-04-21T02:58:03.355Z,3
2016-04-21T02:59:17.564Z,3.06
2016-04-21T03:00:03.346Z,3
2016-04-21T03:01:03.458Z,3
2016-04-21T03:02:03.539Z,3.05
2016-04-21T03:03:03.338Z,3.05
2016-04-21T03:04:03.185Z,3.03
2016-04-21T03:05:03.532Z,2.99
2016-04-21T03:06:03.330Z,3.02
2016-04-21T03:07:03.302Z,3
2016-04-21T03:08:03.304Z,2.92
2016-04-21T03:09:03.307Z,2.99
2016-04-21T03:10:03.546Z,2.96
2016-04-21T03:11:03.298Z,2.92
2016-04-21T03:12:03.394Z,3
2016-04-21T03:13:03.303Z,2.96
2016-04-21T03:14:03.290Z,2.9
2016-04-21T03:15:03.277Z,2.92
2016-04-21T03:16:03.357Z,2.97
2016-04-21T03:17:03.704Z,2.84
2016-04-21T03:18:03.269Z,2.96
2016-04-21T03:19:03.459Z,2.93
2016-04-21T03:20:03.275Z,2.93
2016-04-21T03:21:03.261Z,2.84
2016-04-21T03:22:03.258Z,2.79
2016-04-21T03:23:03.260Z,2.81
2016-04-21T03:24:03.248Z,2.89
2016-04-21T03:25:03.468Z,2.79
2016-04-21T03:26:03.253Z,2.85
2016-04-21T03:27:03.240Z,2.81
2016-04-21T03:28:03.242Z,2.79
2016-04-21T03:29:03.262Z,2.82
2016-04-21T03:30:02.482Z,2.85
2016-04-21T03:31:03.234Z,2.81
2016-04-21T03:32:02.956Z,2.78
2016-04-21T03:33:03.225Z,2.78
2016-04-21T03:34:03.212Z,2.81
2016-04-21T03:35:03.214Z,2.81
2016-04-21T03:36:03.233Z,2.79
2016-04-21T03:37:03.408Z,2.82
2016-04-21T03:38:03.411Z,2.81
2016-04-21T03:39:03.428Z,2.78
2016-04-21T03:40:03.197Z,2.78
2016-04-21T03:41:03.183Z,2.82
2016-04-21T03:42:17.517Z,2.77
2016-04-21T03:43:03.174Z,2.81
2016-04-21T03:44:03.208Z,2.81
2016-04-21T03:45:03.382Z,2.79
2016-04-21T03:46:03.353Z,2.85
2016-04-21T03:47:03.371Z,2.84
2016-04-21T03:48:03.375Z,2.84
2016-04-21T03:49:03.190Z,2.97
2016-04-21T03:50:03.161Z,2.82
2016-04-21T03:51:03.585Z,2.78
2016-04-21T03:52:03.151Z,2.78
2016-04-21T03:53:03.637Z,2.85
2016-04-21T03:54:03.141Z,2.84
2016-04-21T03:55:03.159Z,2.82
2016-04-21T03:56:03.537Z,2.79
2016-04-21T03:57:03.180Z,2.84
2016-04-21T03:58:03.135Z,2.79
2016-04-21T03:59:03.123Z,2.93
2016-04-21T04:00:03.515Z,2.89
2016-04-21T04:01:03.128Z,2.84
2016-04-21T04:02:03.131Z,2.81
2016-04-21T04:03:03.134Z,2.87
2016-04-21T04:04:03.308Z,2.78
2016-04-21T04:05:03.311Z,2.9
2016-04-21T04:06:03.532Z,2.93
2016-04-21T04:07:03.284Z,2.79
2016-04-21T04:08:02.616Z,2.85
2016-04-21T04:09:17.184Z,2.78
2016-04-21T04:10:03.090Z,2.79
2016-04-21T04:11:03.108Z,2.79
2016-04-21T04:12:03.517Z,2.77
2016-04-21T04:13:03.269Z,2.79
2016-04-21T04:14:03.069Z,2.75
2016-04-21T04:15:03.493Z,2.75
2016-04-21T04:16:03.058Z,2.64
2016-04-21T04:17:03.077Z,2.72
2016-04-21T04:18:03.080Z,2.77
2016-04-21T04:19:03.052Z,2.59
2016-04-21T04:20:03.054Z,2.71
2016-04-21T04:22:03.029Z,2.74
2016-04-21T04:23:03.047Z,2.78
2016-04-21T04:24:03.049Z,2.72
2016-04-21T04:25:03.458Z,2.69
2016-04-21T04:26:03.039Z,2.75
2016-04-21T04:27:03.432Z,2.75
2016-04-21T04:28:02.529Z,2.75
2016-04-21T04:29:03.234Z,2.81
2016-04-21T04:30:03.004Z,2.77
2016-04-21T04:31:02.537Z,2.81
2016-04-21T04:32:03.009Z,2.79
2016-04-21T04:33:03.026Z,2.79
2016-04-21T04:34:03.201Z,2.85
2016-04-21T04:35:02.984Z,2.85
2016-04-21T04:36:02.988Z,2.92
2016-04-21T04:37:02.975Z,2.97
2016-04-21T04:38:02.243Z,2.96
2016-04-21T04:39:02.981Z,2.97
2016-04-21T04:40:02.967Z,3
2016-04-21T04:41:02.970Z,3.02
2016-04-21T04:42:02.957Z,3
2016-04-21T04:43:03.178Z,3
2016-04-21T04:44:02.978Z,3.05
2016-04-21T04:45:02.950Z,3.14
2016-04-21T04:46:03.014Z,3.14
2016-04-21T04:47:02.955Z,3.15
2016-04-21T04:48:02.941Z,3.15
2016-04-21T04:49:02.508Z,3.15
2016-04-21T04:50:02.947Z,3.2
2016-04-21T04:51:02.794Z,3.23
2016-04-21T04:52:02.921Z,3.17
2016-04-21T04:53:02.940Z,3.31
2016-04-21T04:54:02.911Z,3.36
2016-04-21T04:55:02.961Z,3.28
2016-04-21T04:56:02.949Z,3.4
2016-04-21T04:57:03.154Z,3.39
2016-04-21T04:58:03.157Z,3.43
2016-04-21T04:59:03.159Z,3.4
2016-04-21T05:00:02.912Z,3.51
2016-04-21T05:01:02.914Z,3.48
2016-04-21T05:02:03.527Z,3.54
2016-04-21T05:03:03.139Z,3.6
2016-04-21T05:04:02.923Z,3.6
2016-04-21T05:05:03.097Z,3.52
2016-04-21T05:06:02.881Z,3.58
2016-04-21T05:07:02.883Z,3.6
2016-04-21T05:08:02.386Z,3.58
2016-04-21T05:09:02.406Z,3.68
2016-04-21T05:10:02.892Z,3.62
2016-04-21T05:11:02.879Z,3.69
2016-04-21T05:12:02.881Z,3.69
2016-04-21T05:13:02.869Z,3.75
2016-04-21T05:14:02.871Z,3.73
2016-04-21T05:15:02.889Z,3.75
2016-04-21T05:16:02.861Z,3.88
2016-04-21T05:17:02.864Z,3.83
2016-04-21T05:18:03.054Z,3.83
2016-04-21T05:19:02.885Z,3.88
2016-04-21T05:20:02.841Z,3.86
2016-04-21T05:21:02.828Z,3.98
2016-04-21T05:22:02.846Z,3.93
2016-04-21T05:23:03.177Z,3.93
2016-04-21T05:24:03.257Z,4.02
2016-04-21T05:26:03.076Z,4.06
2016-04-21T05:27:02.953Z,4.14
2016-04-21T05:28:03.299Z,4.12
2016-04-21T05:29:02.834Z,4.23
2016-04-21T05:30:02.821Z,4.22
2016-04-21T05:31:02.808Z,4.15
2016-04-21T05:32:02.998Z,4.22
2016-04-21T05:33:02.924Z,4.32
2016-04-21T05:35:03.402Z,4.32
2016-04-21T05:36:03.295Z,4.3
2016-04-21T05:37:04.429Z,4.5
2016-04-21T05:38:02.837Z,4.47
2016-04-21T05:39:02.715Z,4.47
2016-04-21T05:40:03.031Z,4.45
2016-04-21T05:41:02.346Z,4.48
2016-04-21T05:42:02.817Z,4.59
2016-04-21T05:43:03.022Z,4.54
2016-04-21T05:44:02.776Z,4.65
2016-04-21T05:45:02.840Z,4.69
2016-04-21T05:46:03.217Z,4.65
2016-04-21T05:47:03.221Z,4.73
2016-04-21T05:48:17.101Z,4.8
2016-04-21T05:49:02.805Z,4.8
2016-04-21T05:50:17.075Z,4.78
2016-04-21T05:51:03.497Z,4.8
2016-04-21T05:52:03.266Z,4.86
2016-04-21T05:53:02.908Z,4.86
2016-04-21T05:54:03.100Z,4.85
2016-04-21T05:55:02.539Z,4.82
2016-04-21T05:56:02.729Z,4.89
2016-04-21T05:57:17.125Z,4.96
2016-04-21T05:58:02.969Z,5
2016-04-21T05:59:02.987Z,5
2016-04-21T06:00:02.335Z,5.04
2016-04-21T06:01:03.790Z,5.03
2016-04-21T06:02:03.933Z,4.94
2016-04-21T06:03:02.874Z,4.96
2016-04-21T06:04:03.110Z,4.99
2016-04-21T06:05:03.301Z,5.02
2016-04-21T06:06:03.116Z,4.96
2016-04-21T06:07:03.024Z,4.92
2016-04-21T06:08:03.152Z,5.03
2016-04-21T06:09:02.842Z,4.97
2016-04-21T06:10:03.001Z,5.02
2016-04-21T06:11:17.098Z,5.06
2016-04-21T06:13:03.572Z,5.09
2016-04-21T06:14:02.872Z,5.18
2016-04-21T06:15:17.015Z,5.22
2016-04-21T06:16:02.924Z,5.22
2016-04-21T06:17:03.583Z,5.3
2016-04-21T06:18:02.836Z,5.27
2016-04-21T06:19:02.745Z,5.35
2016-04-21T06:20:03.153Z,5.31
2016-04-21T06:21:02.766Z,5.39
2016-04-21T06:22:03.518Z,5.36
2016-04-21T06:23:16.411Z,5.38
2016-04-21T06:24:03.086Z,5.33
2016-04-21T06:25:03.244Z,5.4
2016-04-21T06:26:02.904Z,5.46
2016-04-21T06:27:02.828Z,5.49
2016-04-21T06:28:03.144Z,5.38
2016-04-21T06:29:02.990Z,5.53
2016-04-21T06:30:02.899Z,5.54
2016-04-21T06:31:03.121Z,5.54
2016-04-21T06:32:02.889Z,5.51
2016-04-21T06:33:03.220Z,5.48
2016-04-21T06:34:02.894Z,5.54
2016-04-21T06:35:03.022Z,5.64
2016-04-21T06:36:03.509Z,5.72
2016-04-21T06:37:16.934Z,5.74
2016-04-21T06:38:03.062Z,5.74
2016-04-21T06:39:03.221Z,5.79
2016-04-21T06:40:02.723Z,5.86
2016-04-21T06:41:02.929Z,5.86
2016-04-21T06:42:02.932Z,5.91
2016-04-21T06:43:03.559Z,6
2016-04-21T06:44:03.670Z,6.01
2016-04-21T06:45:02.924Z,6.09
2016-04-21T06:46:03.129Z,6.03
2016-04-21T06:47:02.804Z,6.08
2016-04-21T06:48:02.948Z,6.15
2016-04-21T06:49:02.951Z,6.22
2016-04-21T06:50:02.797Z,6.25
2016-04-21T06:51:03.097Z,6.3
2016-04-21T06:52:02.771Z,6.28
2016-04-21T06:53:03.008Z,6.34
2016-04-21T06:54:02.855Z,6.38
2016-04-21T06:55:02.998Z,6.43
2016-04-21T06:56:02.985Z,6.54
2016-04-21T06:57:03.113Z,6.58
2016-04-21T06:58:02.975Z,6.55
2016-04-21T06:59:03.118Z,6.62
2016-04-21T07:01:17.217Z,6.69
2016-04-21T07:02:02.704Z,6.73
2016-04-21T07:03:03.254Z,6.84
2016-04-21T07:04:02.710Z,6.74
2016-04-21T07:05:02.696Z,6.79
2016-04-21T07:06:02.933Z,6.87
2016-04-21T07:07:02.702Z,6.98
2016-04-21T07:08:02.688Z,7.02
2016-04-21T07:09:02.910Z,7.07
2016-04-21T07:10:02.929Z,7.27
2016-04-21T07:11:30.903Z,7.37
2016-04-21T07:12:02.715Z,7.34
2016-04-21T07:13:02.202Z,7.39
2016-04-21T07:14:02.971Z,7.55
2016-04-21T07:15:02.911Z,7.55
2016-04-21T07:16:02.695Z,7.69
2016-04-21T07:17:02.744Z,7.8
2016-04-21T07:18:02.684Z,7.87
2016-04-21T07:19:02.765Z,7.87
2016-04-21T07:20:02.705Z,7.86
2016-04-21T07:21:02.240Z,8.02
2016-04-21T07:22:02.914Z,7.97
2016-04-21T07:23:02.744Z,8.11
2016-04-21T07:24:02.717Z,8.18
2016-04-21T07:25:03.126Z,8.33
2016-04-21T07:26:02.753Z,8.29
2016-04-21T07:27:03.131Z,8.29
2016-04-21T07:28:02.728Z,8.37
2016-04-21T07:29:01.964Z,8.47
2016-04-21T07:30:03.202Z,8.5
2016-04-21T07:31:02.750Z,8.47
2016-04-21T07:32:02.957Z,8.52
2016-04-21T07:33:02.725Z,8.55
2016-04-21T07:34:03.008Z,8.71
2016-04-21T07:35:02.715Z,8.66
2016-04-21T07:36:16.810Z,8.8
2016-04-21T07:37:02.735Z,8.8
2016-04-21T07:38:05.989Z,8.89
2016-04-21T07:39:02.663Z,8.87
2016-04-21T07:41:02.732Z,9.01
2016-04-21T07:42:02.749Z,9.1
2016-04-21T07:43:02.596Z,9.11
2016-04-21T07:44:02.974Z,9.15
2016-04-21T07:45:02.945Z,9.13
2016-04-21T07:46:02.745Z,9.17
2016-04-21T07:47:02.747Z,9.13
2016-04-21T07:48:02.750Z,9.14
2016-04-21T07:49:02.784Z,9.11
2016-04-21T07:50:02.958Z,9.15
2016-04-21T07:51:16.851Z,9.15
2016-04-21T07:52:17.057Z,9.26
2016-04-21T07:53:02.951Z,9.29
2016-04-21T07:54:02.687Z,9.36
2016-04-21T07:55:02.784Z,9.33
2016-04-21T07:56:03.053Z,9.35
2016-04-21T07:57:02.774Z,9.43
2016-04-21T07:58:02.792Z,9.4
2016-04-21T07:59:02.780Z,9.47
2016-04-21T08:01:02.800Z,9.43
2016-04-21T08:02:02.990Z,9.6
2016-04-21T08:03:03.009Z,9.56
2016-04-21T08:04:03.011Z,9.6
2016-04-21T08:05:02.998Z,9.6
2016-04-21T08:06:02.814Z,9.69
2016-04-21T08:07:03.035Z,9.69
2016-04-21T08:08:02.835Z,9.72
2016-04-21T08:09:02.838Z,9.66
2016-04-21T08:10:02.824Z,9.75
2016-04-21T08:11:02.812Z,9.84
2016-04-21T08:12:02.814Z,9.81
2016-04-21T08:13:03.082Z,9.74
2016-04-21T08:14:16.929Z,9.79
2016-04-21T08:15:17.135Z,9.75
2016-04-21T08:16:02.872Z,9.79
2016-04-21T08:17:03.234Z,9.83
2016-04-21T08:18:02.862Z,9.86
2016-04-21T08:19:02.833Z,9.96
2016-04-21T08:20:02.837Z,9.97
2016-04-21T08:21:02.854Z,10.02
2016-04-21T08:22:02.342Z,10.02
2016-04-21T08:23:02.547Z,10.12
2016-04-21T08:24:02.846Z,10.08
2016-04-21T08:26:03.070Z,10.23
2016-04-21T08:27:02.870Z,10.18
2016-04-21T08:28:02.872Z,10.23
2016-04-21T08:29:02.892Z,10.38
2016-04-21T08:30:03.269Z,10.22
2016-04-21T08:31:02.865Z,10.36
2016-04-21T08:32:02.884Z,10.38
2016-04-21T08:33:02.917Z,10.44
2016-04-21T08:34:02.874Z,10.44
2016-04-21T08:35:02.877Z,10.45
2016-04-21T08:36:17.410Z,10.47
2016-04-21T08:37:02.897Z,10.48
2016-04-21T08:38:03.743Z,10.48
2016-04-21T08:39:03.308Z,10.55
2016-04-21T08:40:02.905Z,10.51
2016-04-21T08:41:02.954Z,10.55
2016-04-21T08:42:02.896Z,10.55
2016-04-21T08:43:02.898Z,10.64
2016-04-21T08:44:02.901Z,10.66
2016-04-21T08:45:02.919Z,10.64
2016-04-21T08:46:02.890Z,10.7
2016-04-21T08:47:02.908Z,10.78
2016-04-21T08:48:02.943Z,10.76
2016-04-21T08:49:02.930Z,10.81
2016-04-21T08:50:02.932Z,10.88
2016-04-21T08:51:02.934Z,10.85
2016-04-21T08:54:02.948Z,10.97
2016-04-21T08:55:02.966Z,10.97
2016-04-21T08:56:03.156Z,11.02
2016-04-21T08:57:03.002Z,11.07
2016-04-21T08:58:02.958Z,11
2016-04-21T08:59:02.961Z,11.09
2016-04-21T09:00:02.963Z,11.07
2016-04-21T09:01:03.435Z,11.09
2016-04-21T09:02:02.986Z,11.14
2016-04-21T09:03:02.519Z,11.14
2016-04-21T09:04:03.021Z,11.22
2016-04-21T09:05:02.993Z,11.35
2016-04-21T09:06:03.261Z,11.29
2016-04-21T09:07:17.108Z,11.32
2016-04-21T09:08:17.313Z,11.43
2016-04-21T09:09:17.113Z,11.4
2016-04-21T09:10:03.069Z,11.44
2016-04-21T09:11:02.993Z,11.46
2016-04-21T09:12:03.215Z,11.54
2016-04-21T09:13:03.014Z,11.57
2016-04-21T09:14:03.033Z,11.57
2016-04-21T09:15:03.286Z,11.57
2016-04-21T09:16:03.023Z,11.6
2016-04-21T09:17:03.040Z,11.6
2016-04-21T09:18:03.293Z,11.62
2016-04-21T09:19:03.061Z,11.73
2016-04-21T09:20:03.065Z,11.58
2016-04-21T09:21:03.067Z,11.62
2016-04-21T09:22:03.070Z,11.62
2016-04-21T09:23:03.291Z,11.73
2016-04-21T09:24:03.075Z,11.8
2016-04-21T09:25:03.203Z,11.82
2016-04-21T09:26:03.503Z,11.76
2016-04-21T09:27:03.084Z,11.83
2016-04-21T09:28:03.509Z,11.88
2016-04-21T09:30:03.311Z,12.01
2016-04-21T09:31:03.281Z,11.94
2016-04-21T09:32:03.441Z,12.05
2016-04-21T09:33:03.130Z,12.05
2016-04-21T09:34:03.336Z,12.09
2016-04-21T09:35:03.714Z,12.17
2016-04-21T09:36:03.358Z,12.19
2016-04-21T09:37:02.657Z,12.12
2016-04-21T09:38:03.144Z,12.07
2016-04-21T09:39:03.146Z,12.2
2016-04-21T09:40:03.338Z,12.14
2016-04-21T09:41:03.199Z,12.2
2016-04-21T09:42:03.390Z,12.32
2016-04-21T09:44:03.707Z,12.34
2016-04-21T09:45:03.179Z,12.32
2016-04-21T09:46:03.196Z,12.49
2016-04-21T09:47:03.215Z,12.45
2016-04-21T09:48:03.202Z,12.47
2016-04-21T09:49:03.267Z,12.57
2016-04-21T09:50:03.396Z,12.64
2016-04-21T09:51:03.460Z,12.74
2016-04-21T09:52:03.244Z,12.78
2016-04-21T09:53:03.216Z,12.77
2016-04-21T09:55:03.440Z,12.9
2016-04-21T09:56:03.256Z,12.96
2016-04-21T09:57:03.242Z,12.9
2016-04-21T09:58:03.651Z,12.95
2016-04-21T09:59:03.247Z,13
2016-04-21T10:00:17.595Z,13.07
2016-04-21T10:01:03.300Z,13.08
2016-04-21T10:02:17.381Z,13.05
2016-04-21T10:03:03.540Z,13.07
2016-04-21T10:04:17.370Z,13.17
2016-04-21T10:05:03.279Z,13.17
2016-04-21T10:06:03.297Z,13.19
2016-04-21T10:07:03.300Z,13.29
2016-04-21T10:08:03.928Z,13.32
2016-04-21T10:09:18.055Z,13.3
2016-04-21T10:10:03.699Z,13.3
2016-04-21T10:12:03.390Z,13.33
2016-04-21T10:13:24.811Z,13.36
2016-04-21T10:14:03.515Z,13.3
2016-04-21T10:15:03.593Z,13.42
2016-04-21T10:16:03.572Z,13.48
2016-04-21T10:17:03.607Z,13.42
2016-04-21T10:18:03.734Z,13.52
2016-04-21T10:19:03.722Z,13.57
2016-04-21T10:20:03.694Z,13.57
2016-04-21T10:21:03.735Z,13.59
2016-04-21T10:22:03.696Z,13.66
2016-04-21T10:23:03.737Z,13.69
2016-04-21T10:24:03.714Z,13.77
2016-04-21T10:25:04.332Z,13.7
2016-04-21T10:26:04.056Z,13.77
2016-04-21T10:27:03.998Z,13.84
2016-04-21T10:28:03.925Z,13.87
2016-04-21T10:29:03.445Z,13.87
2016-04-21T10:30:03.810Z,13.91
2016-04-21T10:31:04.220Z,13.99
2016-04-21T10:32:04.035Z,13.99
2016-04-21T10:33:04.132Z,13.99
2016-04-21T10:34:03.948Z,14.03
2016-04-21T10:35:04.139Z,13.99
2016-04-21T10:36:04.017Z,14.02
2016-04-21T10:37:04.473Z,14
2016-04-21T10:38:04.259Z,14.1
2016-04-21T10:39:04.057Z,14.02
2016-04-21T10:40:04.232Z,14.06
2016-04-21T10:41:04.251Z,13.99
2016-04-21T10:42:04.191Z,14.1
2016-04-21T10:43:04.226Z,14.04
2016-04-21T10:44:03.962Z,14
2016-04-21T10:45:03.856Z,14.04
2016-04-21T10:46:04.077Z,14.09
2016-04-21T10:47:04.408Z,14.06
2016-04-21T10:48:04.052Z,14.09
2016-04-21T10:49:04.257Z,14.1
2016-04-21T10:50:03.495Z,14.12
2016-04-21T10:51:04.341Z,14.04
2016-04-21T10:52:04.234Z,14.15
2016-04-21T10:53:04.534Z,14.15
2016-04-21T10:54:04.334Z,14.21
2016-04-21T10:55:04.430Z,14.18
2016-04-21T10:56:04.401Z,14.17
2016-04-21T10:57:03.388Z,14.21
2016-04-21T10:58:04.297Z,14.28
2016-04-21T10:59:04.222Z,14.18
2016-04-21T11:00:04.193Z,14.27
2016-04-21T11:01:04.367Z,14.36
2016-04-21T11:02:04.386Z,14.33
2016-04-21T11:03:17.670Z,14.43
2016-04-21T11:04:04.360Z,14.54
2016-04-21T11:05:04.222Z,14.54
2016-04-21T11:07:04.306Z,14.65
2016-04-21T11:08:04.418Z,14.58
2016-04-21T11:09:04.327Z,14.64
2016-04-21T11:10:04.454Z,14.58
2016-04-21T11:11:04.504Z,14.69
2016-04-21T11:12:04.351Z,14.75
2016-04-21T11:13:04.525Z,14.73
2016-04-21T11:14:04.340Z,14.75
2016-04-21T11:15:04.437Z,14.92
2016-04-21T11:16:04.612Z,14.84
2016-04-21T11:17:04.521Z,14.81
2016-04-21T11:18:04.741Z,14.94
2016-04-21T11:19:04.587Z,14.83
2016-04-21T11:20:04.590Z,14.83
2016-04-21T11:21:04.531Z,14.91
2016-04-21T11:22:04.361Z,14.98
2016-04-21T11:23:04.443Z,15.06
2016-04-21T11:24:04.429Z,15.11
2016-04-21T11:25:04.557Z,15.09
2016-04-21T11:26:04.544Z,15.21
2016-04-21T11:27:04.547Z,15.19
2016-04-21T11:28:04.550Z,15.19
2016-04-21T11:29:04.225Z,15.2
2016-04-21T11:30:04.227Z,15.21
2016-04-21T11:31:04.652Z,15.27
2016-04-21T11:33:04.657Z,15.29
2016-04-21T11:34:04.316Z,15.32
2016-04-21T11:35:04.569Z,15.27
2016-04-21T11:36:04.508Z,15.32
2016-04-21T11:37:04.558Z,15.41
2016-04-21T11:38:04.826Z,15.46
2016-04-21T11:39:04.688Z,15.46
2016-04-21T11:40:04.691Z,15.46
2016-04-21T11:41:04.554Z,15.5
2016-04-21T11:42:04.619Z,15.39
2016-04-21T11:43:04.324Z,15.57
2016-04-21T11:44:04.358Z,15.59
2016-04-21T11:45:04.346Z,15.62
2016-04-21T11:46:04.661Z,15.65
2016-04-21T11:47:04.366Z,15.57
2016-04-21T11:48:04.384Z,15.72
2016-04-21T11:50:04.390Z,15.78
2016-04-21T11:51:04.690Z,15.83
2016-04-21T11:52:18.724Z,15.94
2016-04-21T11:53:04.617Z,15.97
2016-04-21T11:54:04.463Z,16.02
2016-04-21T11:55:04.450Z,16.11
2016-04-21T11:56:04.469Z,16.15
2016-04-21T11:57:04.456Z,16
2016-04-21T11:58:04.521Z,16.11
2016-04-21T11:59:04.445Z,16.14
2016-04-21T12:00:04.542Z,16.23
2016-04-21T12:01:04.544Z,16.25
2016-04-21T12:02:04.547Z,16.39
2016-04-21T12:03:04.753Z,16.38
2016-04-21T12:04:04.772Z,16.48
2016-04-21T12:06:04.777Z,16.57
2016-04-21T12:07:04.545Z,16.7
2016-04-21T12:08:04.672Z,16.66
2016-04-21T12:09:04.316Z,16.83
2016-04-21T12:10:04.600Z,16.78
2016-04-21T12:11:04.837Z,16.88
2016-04-21T12:12:04.621Z,17
2016-04-21T12:13:04.140Z,16.97
2016-04-21T12:14:18.954Z,17.04
2016-04-21T12:15:04.660Z,17.08
2016-04-21T12:16:04.679Z,17.11
2016-04-21T12:17:04.854Z,17.08
2016-04-21T12:18:04.684Z,17.11
2016-04-21T12:19:04.687Z,17.18
2016-04-21T12:20:04.689Z,17.19
2016-04-21T12:21:04.692Z,17.18
2016-04-21T12:22:04.695Z,17.06
2016-04-21T12:23:04.712Z,17.22
2016-04-21T12:24:04.732Z,17.22
2016-04-21T12:25:04.765Z,17.23
2016-04-21T12:26:04.768Z,17.21
2016-04-21T12:27:04.786Z,17.3
2016-04-21T12:28:04.993Z,17.25
2016-04-21T12:29:04.776Z,17.37
2016-04-21T12:30:07.950Z,17.37
2016-04-21T12:31:05.141Z,17.43
2016-04-21T12:32:04.831Z,17.46
2016-04-21T12:33:05.006Z,17.41
2016-04-21T12:34:05.992Z,17.38
2016-04-21T12:35:05.292Z,17.56
2016-04-21T12:36:04.935Z,17.55
2016-04-21T12:37:04.969Z,17.4
2016-04-21T12:38:05.207Z,17.48
2016-04-21T12:39:04.881Z,17.36
2016-04-21T12:40:05.149Z,17.41
2016-04-21T12:42:05.171Z,17.56
2016-04-21T12:43:19.236Z,17.62
2016-04-21T12:44:04.973Z,17.63
2016-04-21T12:45:04.991Z,17.62
2016-04-21T12:46:04.978Z,17.64
2016-04-21T12:47:04.965Z,17.75
2016-04-21T12:48:04.984Z,17.71
2016-04-21T12:49:05.001Z,17.75
2016-04-21T12:50:04.990Z,17.79
2016-04-21T12:51:05.242Z,17.95
2016-04-21T12:52:05.026Z,17.96
2016-04-21T12:53:05.044Z,17.99
2016-04-21T12:54:05.046Z,18.05
2016-04-21T12:55:04.924Z,18.15
2016-04-21T12:56:05.083Z,18.23
2016-04-21T12:57:05.070Z,18.2
2016-04-21T12:58:05.292Z,18.23
2016-04-21T12:59:05.123Z,18.2
2016-04-21T13:00:05.142Z,18.23
2016-04-21T13:01:05.128Z,18.17
2016-04-21T13:02:05.147Z,18.37
2016-04-21T13:03:05.384Z,18.35
2016-04-21T13:04:05.167Z,18.32
2016-04-21T13:05:05.169Z,18.33
2016-04-21T13:06:05.188Z,18.44
2016-04-21T13:07:05.191Z,18.5
2016-04-21T13:08:19.366Z,18.6
2016-04-21T13:09:05.227Z,18.55
2016-04-21T13:10:05.089Z,18.55
2016-04-21T13:11:05.296Z,18.44
2016-04-21T13:12:04.549Z,18.6
2016-04-21T13:13:19.551Z,18.63
2016-04-21T13:14:05.474Z,18.67
2016-04-21T13:15:05.322Z,18.73
2016-04-21T13:16:05.340Z,18.72
2016-04-21T13:18:04.893Z,18.69
2016-04-21T13:19:05.332Z,18.62
2016-04-21T13:20:05.351Z,18.62
2016-04-21T13:21:05.354Z,18.58
2016-04-21T13:22:05.419Z,18.48
2016-04-21T13:23:19.688Z,18.52
2016-04-21T13:24:05.409Z,18.58
2016-04-21T13:25:05.786Z,18.42
2016-04-21T13:26:05.414Z,18.42
2016-04-21T13:28:05.170Z,18.57
2016-04-21T13:29:19.750Z,18.58
2016-04-21T13:30:05.503Z,18.67
2016-04-21T13:31:05.490Z,18.7
2016-04-21T13:32:05.493Z,18.7
2016-04-21T13:33:19.589Z,18.72